createdAt,value
2023-03-30T00:01:11.953Z,48.26
2023-03-30T00:03:40.005Z,48.35
2023-03-30T00:06:09.078Z,48.36
2023-03-30T00:08:37.755Z,48.36
2023-03-30T00:11:07.104Z,48.40
2023-03-30T00:13:36.888Z,48.51
2023-03-30T00:16:06.849Z,48.49
2023-03-30T00:18:36.724Z,48.47
2023-03-30T00:21:05.877Z,48.49
2023-03-30T00:23:33.739Z,48.47
2023-03-30T00:26:01.327Z,48.73
2023-03-30T00:28:31.037Z,48.71
2023-03-30T00:30:58.928Z,48.61
2023-03-30T00:33:41.383Z,48.82
2023-03-30T00:36:13.062Z,48.77
2023-03-30T00:38:40.998Z,48.84
2023-03-30T00:41:09.193Z,48.87
2023-03-30T00:44:01.039Z,49.03
2023-03-30T00:46:31.672Z,49.04
2023-03-30T00:49:08.882Z,49.08
2023-03-30T00:51:40.436Z,49.13
2023-03-30T00:54:16.577Z,49.14
2023-03-30T00:56:45.329Z,49.31
2023-03-30T00:59:14.220Z,49.31
2023-03-30T01:01:42.223Z,49.41
2023-03-30T01:04:11.052Z,49.44
2023-03-30T01:06:40.896Z,49.48
2023-03-30T01:09:08.916Z,49.49
2023-03-30T01:11:36.621Z,49.63
2023-03-30T01:14:08.202Z,49.63
2023-03-30T01:16:35.625Z,49.72
2023-03-30T01:19:36.000Z,49.78
2023-03-30T01:22:20.466Z,49.90
2023-03-30T01:25:04.170Z,49.93
2023-03-30T01:27:46.025Z,50.08
2023-03-30T01:30:29.821Z,50.00
2023-03-30T01:33:09.357Z,50.15
2023-03-30T01:36:05.170Z,50.10
2023-03-30T01:38:51.625Z,50.35
2023-03-30T01:41:42.119Z,50.32
2023-03-30T01:44:22.493Z,50.43
2023-03-30T01:46:57.794Z,50.39
2023-03-30T01:49:32.380Z,50.41
2023-03-30T01:52:11.940Z,50.45
2023-03-30T01:54:56.817Z,50.59
2023-03-30T01:57:43.823Z,50.60
2023-03-30T02:00:17.722Z,50.61
2023-03-30T02:02:52.475Z,50.72
2023-03-30T02:05:22.926Z,50.86
2023-03-30T02:07:55.992Z,50.90
2023-03-30T02:10:28.024Z,50.87
2023-03-30T02:12:58.778Z,50.80
2023-03-30T02:15:33.984Z,50.94
2023-03-30T02:18:01.662Z,51.06
2023-03-30T02:20:33.004Z,51.06
2023-03-30T02:23:02.425Z,51.23
2023-03-30T02:25:29.909Z,51.27
2023-03-30T02:27:57.720Z,51.38
2023-03-30T02:30:25.543Z,51.46
2023-03-30T02:32:56.245Z,51.37
2023-03-30T02:35:49.659Z,51.40
2023-03-30T02:38:49.354Z,51.44
2023-03-30T02:41:38.853Z,51.58
2023-03-30T02:44:33.129Z,51.72
2023-03-30T02:47:16.785Z,51.83
2023-03-30T02:50:06.947Z,51.84
2023-03-30T02:52:48.466Z,51.80
2023-03-30T02:55:23.287Z,51.98
2023-03-30T02:58:19.793Z,51.99
2023-03-30T03:00:59.365Z,52.08
2023-03-30T03:03:37.833Z,52.02
2023-03-30T03:06:09.317Z,51.95
2023-03-30T03:08:40.888Z,51.98
2023-03-30T03:11:09.241Z,52.05
2023-03-30T03:13:38.629Z,52.30
2023-03-30T03:16:12.753Z,52.18
2023-03-30T03:18:41.447Z,52.24
2023-03-30T03:21:10.881Z,52.33
2023-03-30T03:23:38.504Z,52.36
2023-03-30T03:26:06.694Z,52.31
2023-03-30T03:28:34.883Z,52.45
2023-03-30T03:31:03.606Z,52.36
2023-03-30T03:33:32.333Z,52.51
2023-03-30T03:36:00.651Z,52.52
2023-03-30T03:38:29.366Z,52.60
2023-03-30T03:40:59.446Z,52.72
2023-03-30T03:43:26.981Z,52.63
2023-03-30T03:45:55.235Z,52.61
2023-03-30T03:48:24.708Z,52.65
2023-03-30T03:50:54.953Z,52.62
2023-03-30T03:53:24.295Z,52.75
2023-03-30T03:55:52.053Z,52.83
2023-03-30T03:58:20.272Z,52.74
2023-03-30T04:00:48.568Z,52.90
2023-03-30T04:03:16.278Z,52.99
2023-03-30T04:05:44.532Z,52.92
2023-03-30T04:08:12.171Z,52.95
2023-03-30T04:10:41.386Z,53.04
2023-03-30T04:13:09.775Z,53.05
2023-03-30T04:15:37.420Z,52.95
2023-03-30T04:18:05.370Z,53.14
2023-03-30T04:20:34.473Z,53.27
2023-03-30T04:23:02.782Z,53.21
2023-03-30T04:25:31.063Z,53.18
2023-03-30T04:27:58.982Z,53.16
2023-03-30T04:30:26.423Z,53.40
2023-03-30T04:33:09.999Z,53.38
2023-03-30T04:35:37.566Z,53.26
2023-03-30T04:38:06.163Z,53.40
2023-03-30T04:40:34.254Z,53.59
2023-03-30T04:43:03.729Z,53.44
2023-03-30T04:45:31.411Z,53.56
2023-03-30T04:47:59.005Z,53.54
2023-03-30T04:50:26.498Z,53.48
2023-03-30T04:52:54.081Z,53.62
2023-03-30T04:55:21.796Z,53.70
2023-03-30T04:57:49.349Z,53.55
2023-03-30T05:00:17.521Z,53.61
2023-03-30T05:02:45.097Z,53.64
2023-03-30T05:05:13.121Z,53.79
2023-03-30T05:07:40.908Z,53.67
2023-03-30T05:10:10.249Z,53.77
2023-03-30T05:12:37.838Z,53.70
2023-03-30T05:15:07.141Z,53.80
2023-03-30T05:17:37.049Z,53.95
2023-03-30T05:20:10.003Z,53.79
2023-03-30T05:22:37.861Z,53.81
2023-03-30T05:25:07.211Z,53.86
2023-03-30T05:27:34.821Z,53.93
2023-03-30T05:30:04.110Z,54.19
2023-03-30T05:32:31.836Z,54.03
2023-03-30T05:34:59.470Z,54.18
2023-03-30T05:37:27.164Z,54.18
2023-03-30T05:39:54.820Z,54.19
2023-03-30T05:42:22.564Z,54.18
2023-03-30T05:44:50.156Z,54.15
2023-03-30T05:47:18.064Z,54.09
2023-03-30T05:49:46.222Z,54.26
2023-03-30T05:52:13.867Z,54.31
2023-03-30T05:54:44.179Z,54.25
2023-03-30T05:57:12.606Z,54.22
2023-03-30T05:59:40.161Z,54.11
2023-03-30T06:02:10.984Z,54.23
2023-03-30T06:04:39.301Z,54.17
2023-03-30T06:07:09.195Z,54.26
2023-03-30T06:09:37.191Z,54.28
2023-03-30T06:12:05.425Z,54.18
2023-03-30T06:14:33.224Z,54.27
2023-03-30T06:17:02.804Z,54.27
2023-03-30T06:19:31.445Z,54.29
2023-03-30T06:22:07.346Z,54.29
2023-03-30T06:24:36.193Z,54.32
2023-03-30T06:27:03.766Z,54.32
2023-03-30T06:29:31.887Z,54.34
2023-03-30T06:32:01.360Z,54.24
2023-03-30T06:34:30.990Z,54.34
2023-03-30T06:36:58.539Z,54.27
2023-03-30T06:39:30.003Z,54.22
2023-03-30T06:41:57.707Z,54.23
2023-03-30T06:44:25.283Z,54.08
2023-03-30T06:46:54.112Z,54.27
2023-03-30T06:49:20.655Z,54.34
2023-03-30T06:51:48.496Z,54.31
2023-03-30T06:54:20.061Z,54.21
2023-03-30T06:56:48.887Z,54.22
2023-03-30T06:59:22.009Z,54.22
2023-03-30T07:02:01.187Z,54.13
2023-03-30T07:04:50.666Z,54.10
2023-03-30T07:07:35.701Z,54.14
2023-03-30T07:10:11.021Z,54.02
2023-03-30T07:12:42.888Z,53.84
2023-03-30T07:15:12.388Z,53.95
2023-03-30T07:17:43.278Z,53.84
2023-03-30T07:20:14.808Z,53.88
2023-03-30T07:22:43.115Z,54.12
2023-03-30T07:25:10.817Z,54.02
2023-03-30T07:27:38.685Z,54.03
2023-03-30T07:30:20.436Z,53.96
2023-03-30T07:32:52.642Z,53.93
2023-03-30T07:35:21.122Z,54.03
2023-03-30T07:38:03.478Z,53.92
2023-03-30T07:40:42.156Z,54.05
2023-03-30T07:43:09.725Z,53.84
2023-03-30T07:45:37.535Z,53.97
2023-03-30T07:48:05.424Z,53.90
2023-03-30T07:50:33.121Z,54.01
2023-03-30T07:53:06.144Z,54.02
2023-03-30T07:55:33.903Z,53.90
2023-03-30T07:58:01.450Z,53.94
2023-03-30T08:00:30.332Z,53.96
2023-03-30T08:02:57.989Z,54.21
2023-03-30T08:05:25.732Z,54.22
2023-03-30T08:07:53.490Z,54.28
2023-03-30T08:10:20.974Z,54.22
2023-03-30T08:12:48.649Z,54.33
2023-03-30T08:15:16.778Z,54.22
2023-03-30T08:17:44.471Z,54.21
2023-03-30T08:20:12.887Z,54.29
2023-03-30T08:22:40.449Z,54.05
2023-03-30T08:25:09.156Z,54.14
2023-03-30T08:27:36.742Z,53.93
2023-03-30T08:30:05.348Z,54.17
2023-03-30T08:32:32.881Z,54.25
2023-03-30T08:35:00.827Z,54.15
2023-03-30T08:37:28.569Z,54.38
2023-03-30T08:39:56.128Z,54.36
2023-03-30T08:42:37.725Z,54.45
2023-03-30T08:45:09.482Z,54.28
2023-03-30T08:47:44.169Z,54.21
2023-03-30T08:50:43.065Z,54.31
2023-03-30T08:53:16.993Z,54.49
2023-03-30T08:56:21.147Z,54.53
2023-03-30T08:59:04.990Z,54.49
2023-03-30T09:01:48.852Z,54.58
2023-03-30T09:04:30.252Z,53.87
2023-03-30T09:07:16.979Z,53.37
2023-03-30T09:09:49.202Z,53.28
2023-03-30T09:12:28.698Z,53.17
2023-03-30T09:15:00.929Z,53.12
2023-03-30T09:17:44.796Z,53.04
2023-03-30T09:20:23.136Z,53.01
2023-03-30T09:22:53.181Z,53.14
2023-03-30T09:25:45.266Z,53.10
2023-03-30T09:28:32.962Z,53.31
2023-03-30T09:31:41.295Z,53.49
2023-03-30T09:34:27.204Z,53.34
2023-03-30T09:37:11.749Z,53.45
2023-03-30T09:39:41.504Z,53.63
2023-03-30T09:42:25.682Z,53.63
2023-03-30T09:45:09.638Z,53.85
2023-03-30T09:47:39.835Z,54.03
2023-03-30T09:50:25.030Z,53.96
2023-03-30T09:53:25.474Z,54.17
2023-03-30T09:56:00.659Z,54.21
2023-03-30T09:58:34.759Z,54.19
2023-03-30T10:01:20.214Z,54.16
2023-03-30T10:04:13.902Z,54.26
2023-03-30T10:06:48.995Z,54.58
2023-03-30T10:09:19.802Z,54.51
2023-03-30T10:11:53.163Z,54.57
2023-03-30T10:14:34.025Z,54.44
2023-03-30T10:17:04.000Z,54.61
2023-03-30T10:19:38.106Z,54.27
2023-03-30T10:22:22.317Z,54.35
2023-03-30T10:24:55.093Z,54.33
2023-03-30T10:27:34.003Z,54.42
2023-03-30T10:30:13.255Z,54.17
2023-03-30T10:32:47.531Z,53.92
2023-03-30T10:35:24.497Z,53.98
2023-03-30T10:37:55.868Z,53.49
2023-03-30T10:40:27.731Z,53.36
2023-03-30T10:42:57.910Z,53.21
2023-03-30T10:45:49.000Z,53.38
2023-03-30T10:48:57.778Z,53.27
2023-03-30T10:51:31.850Z,53.35
2023-03-30T10:54:02.296Z,53.22
2023-03-30T10:56:37.880Z,53.19
2023-03-30T10:59:37.605Z,52.82
2023-03-30T11:02:49.312Z,52.62
2023-03-30T11:05:32.720Z,52.73
2023-03-30T11:08:23.647Z,52.43
2023-03-30T11:10:57.259Z,52.50
2023-03-30T11:13:50.871Z,52.60
2023-03-30T11:16:31.811Z,52.55
2023-03-30T11:19:12.343Z,52.65
2023-03-30T11:22:13.702Z,52.66
2023-03-30T11:24:44.901Z,52.59
2023-03-30T11:27:35.547Z,52.91
2023-03-30T11:30:10.122Z,52.80
2023-03-30T11:32:53.026Z,52.90
2023-03-30T11:35:46.260Z,53.17
2023-03-30T11:38:33.569Z,53.51
2023-03-30T11:41:23.986Z,53.71
2023-03-30T11:43:56.016Z,53.58
2023-03-30T11:46:35.117Z,53.17
2023-03-30T11:49:09.933Z,52.84
2023-03-30T11:52:04.559Z,52.58
2023-03-30T11:54:59.888Z,52.20
2023-03-30T11:57:47.355Z,51.95
2023-03-30T12:00:40.893Z,51.82
2023-03-30T12:03:40.991Z,51.60
2023-03-30T12:06:30.669Z,51.56
2023-03-30T12:09:14.433Z,51.59
2023-03-30T12:11:54.475Z,51.38
2023-03-30T12:14:47.102Z,51.48
2023-03-30T12:17:33.290Z,51.55
2023-03-30T12:20:07.819Z,51.22
2023-03-30T12:22:56.704Z,51.56
2023-03-30T12:25:43.380Z,51.76
2023-03-30T12:28:54.901Z,51.66
2023-03-30T12:31:50.546Z,51.76
2023-03-30T12:34:21.025Z,51.86
2023-03-30T12:40:27.274Z,52.31
2023-03-30T12:46:27.047Z,52.43
2023-03-30T12:49:17.145Z,52.46
2023-03-30T12:52:10.561Z,52.61
2023-03-30T12:54:48.547Z,52.68
2023-03-30T12:57:38.815Z,52.81
2023-03-30T13:00:09.469Z,52.85
2023-03-30T13:02:52.411Z,53.06
2023-03-30T13:05:41.533Z,53.07
2023-03-30T13:08:31.229Z,53.21
2023-03-30T13:11:17.681Z,53.37
2023-03-30T13:14:02.995Z,53.50
2023-03-30T13:16:50.231Z,53.70
2023-03-30T13:19:33.971Z,53.71
2023-03-30T13:22:23.995Z,53.81
2023-03-30T13:25:03.767Z,53.95
2023-03-30T13:27:37.130Z,53.82
2023-03-30T13:30:07.840Z,53.61
2023-03-30T13:33:02.889Z,53.43
2023-03-30T13:35:50.149Z,53.42
2023-03-30T13:39:00.184Z,53.25
2023-03-30T13:41:50.964Z,53.29
2023-03-30T13:45:00.835Z,53.36
2023-03-30T13:48:00.299Z,53.29
2023-03-30T13:50:31.186Z,53.39
2023-03-30T13:53:03.561Z,53.33
2023-03-30T13:55:39.372Z,53.34
2023-03-30T13:58:28.972Z,53.39
2023-03-30T14:01:02.521Z,53.28
2023-03-30T14:03:32.265Z,53.45
2023-03-30T14:06:18.869Z,53.35
2023-03-30T14:08:50.276Z,53.52
2023-03-30T14:11:33.892Z,53.44
2023-03-30T14:14:03.961Z,53.44
2023-03-30T14:16:40.410Z,53.45
2023-03-30T14:19:40.264Z,53.55
2023-03-30T14:22:27.273Z,53.55
2023-03-30T14:25:00.957Z,53.76
2023-03-30T14:27:44.483Z,53.91
2023-03-30T14:30:21.448Z,54.04
2023-03-30T14:33:06.183Z,54.29
2023-03-30T14:35:35.672Z,54.34
2023-03-30T14:38:14.071Z,54.43
2023-03-30T14:40:45.564Z,54.43
2023-03-30T14:43:17.107Z,54.44
2023-03-30T14:45:44.816Z,54.51
2023-03-30T14:48:29.283Z,54.67
2023-03-30T14:50:56.895Z,54.78
2023-03-30T14:53:29.117Z,54.80
2023-03-30T14:56:00.755Z,55.11
2023-03-30T14:58:31.891Z,55.06
2023-03-30T15:01:09.165Z,55.08
2023-03-30T15:03:38.250Z,55.26
2023-03-30T15:06:08.216Z,55.30
2023-03-30T15:08:39.954Z,55.51
2023-03-30T15:11:21.513Z,55.63
2023-03-30T15:14:02.982Z,55.58
2023-03-30T15:16:35.660Z,55.81
2023-03-30T15:19:21.098Z,55.76
2023-03-30T15:21:53.793Z,55.91
2023-03-30T15:24:29.339Z,55.90
2023-03-30T15:27:03.922Z,55.91
2023-03-30T15:29:32.655Z,56.07
2023-03-30T15:32:24.081Z,55.96
2023-03-30T15:35:22.606Z,56.11
2023-03-30T15:38:20.931Z,56.11
2023-03-30T15:40:52.093Z,56.17
2023-03-30T15:43:33.739Z,56.26
2023-03-30T15:46:13.774Z,56.17
2023-03-30T15:48:52.576Z,56.22
2023-03-30T15:51:33.357Z,56.39
2023-03-30T15:54:17.906Z,56.31
2023-03-30T15:57:08.452Z,56.29
2023-03-30T15:59:49.716Z,56.45
2023-03-30T16:02:21.556Z,56.60
2023-03-30T16:04:49.626Z,56.67
2023-03-30T16:07:20.682Z,56.69
2023-03-30T16:09:49.063Z,56.76
2023-03-30T16:12:28.596Z,56.76
2023-03-30T16:14:58.884Z,56.75
2023-03-30T16:17:26.496Z,56.71
2023-03-30T16:19:54.305Z,56.97
2023-03-30T16:22:21.966Z,56.93
2023-03-30T16:24:50.855Z,57.10
2023-03-30T16:27:18.338Z,57.02
2023-03-30T16:29:47.974Z,57.12
2023-03-30T16:32:15.502Z,57.07
2023-03-30T16:34:44.252Z,57.20
2023-03-30T16:37:11.973Z,57.31
2023-03-30T16:39:39.498Z,57.34
2023-03-30T16:42:07.158Z,57.44
2023-03-30T16:44:36.424Z,57.42
2023-03-30T16:47:04.097Z,57.37
2023-03-30T16:49:32.113Z,57.69
2023-03-30T16:52:01.485Z,57.55
2023-03-30T16:54:32.715Z,57.63
2023-03-30T16:57:01.768Z,57.85
2023-03-30T16:59:31.798Z,57.77
2023-03-30T17:02:00.285Z,57.83
2023-03-30T17:04:28.159Z,58.01
2023-03-30T17:06:56.971Z,58.02
2023-03-30T17:09:24.629Z,57.93
2023-03-30T17:11:54.673Z,58.04
2023-03-30T17:14:23.301Z,57.99
2023-03-30T17:16:50.870Z,58.20
2023-03-30T17:19:19.113Z,58.19
2023-03-30T17:21:46.948Z,58.25
2023-03-30T17:24:16.570Z,58.19
2023-03-30T17:26:44.320Z,58.26
2023-03-30T17:29:13.135Z,58.44
2023-03-30T17:31:45.710Z,58.40
2023-03-30T17:34:15.791Z,58.47
2023-03-30T17:36:45.701Z,58.51
2023-03-30T17:39:14.591Z,58.64
2023-03-30T17:41:44.551Z,58.73
2023-03-30T17:44:12.447Z,58.82
2023-03-30T17:46:42.723Z,58.93
2023-03-30T17:49:17.338Z,58.98
2023-03-30T17:51:45.759Z,59.07
2023-03-30T17:54:16.739Z,59.15
2023-03-30T17:56:44.320Z,59.30
2023-03-30T17:59:12.270Z,59.36
2023-03-30T18:01:41.209Z,59.49
2023-03-30T18:04:09.638Z,59.59
2023-03-30T18:06:37.391Z,59.75
2023-03-30T18:09:13.741Z,59.79
2023-03-30T18:11:41.924Z,59.78
2023-03-30T18:14:09.515Z,59.78
2023-03-30T18:16:42.711Z,60.07
2023-03-30T18:19:12.343Z,60.13
2023-03-30T18:21:41.746Z,60.24
2023-03-30T18:24:09.911Z,60.38
2023-03-30T18:26:39.595Z,60.35
2023-03-30T18:29:19.884Z,60.40
2023-03-30T18:31:48.270Z,60.58
2023-03-30T18:34:17.135Z,60.53
2023-03-30T18:36:44.885Z,60.61
2023-03-30T18:39:21.387Z,60.59
2023-03-30T18:41:50.082Z,60.75
2023-03-30T18:44:19.244Z,60.90
2023-03-30T18:46:56.005Z,60.96
2023-03-30T18:49:23.730Z,61.04
2023-03-30T18:51:52.244Z,61.06
2023-03-30T18:54:19.803Z,61.16
2023-03-30T18:56:49.651Z,61.30
2023-03-30T18:59:19.614Z,61.46
2023-03-30T19:01:47.242Z,61.58
2023-03-30T19:04:18.930Z,61.68
2023-03-30T19:06:48.534Z,61.81
2023-03-30T19:09:16.422Z,61.89
2023-03-30T19:11:43.984Z,61.98
2023-03-30T19:14:11.584Z,62.16
2023-03-30T19:16:41.615Z,62.13
2023-03-30T19:19:14.903Z,62.34
2023-03-30T19:21:43.489Z,62.68
2023-03-30T19:24:13.054Z,62.82
2023-03-30T19:26:41.828Z,62.83
2023-03-30T19:29:09.440Z,62.76
2023-03-30T19:31:36.958Z,63.04
2023-03-30T19:34:04.481Z,63.13
2023-03-30T19:36:31.995Z,63.23
2023-03-30T19:38:59.677Z,63.35
2023-03-30T19:41:27.268Z,63.41
2023-03-30T19:43:54.891Z,63.58
2023-03-30T19:46:22.698Z,63.52
2023-03-30T19:48:50.153Z,63.56
2023-03-30T19:51:19.221Z,63.75
2023-03-30T19:53:49.359Z,63.89
2023-03-30T19:56:20.643Z,63.91
2023-03-30T19:58:48.084Z,63.99
2023-03-30T20:01:15.644Z,63.94
2023-03-30T20:03:43.416Z,64.06
2023-03-30T20:06:12.435Z,64.15
2023-03-30T20:08:40.528Z,64.13
2023-03-30T20:11:09.551Z,64.22
2023-03-30T20:13:37.138Z,64.32
2023-03-30T20:16:06.177Z,64.25
2023-03-30T20:18:35.537Z,64.44
2023-03-30T20:21:05.662Z,64.35
2023-03-30T20:23:33.865Z,64.54
2023-03-30T20:26:04.222Z,64.42
2023-03-30T20:28:32.020Z,64.46
2023-03-30T20:31:00.710Z,64.60
2023-03-30T20:33:30.419Z,64.54
2023-03-30T20:35:59.006Z,64.68
2023-03-30T20:38:27.470Z,64.73
2023-03-30T20:41:06.209Z,64.90
2023-03-30T20:43:56.486Z,64.92
2023-03-30T20:46:25.890Z,64.86
2023-03-30T20:49:02.057Z,64.95
2023-03-30T20:51:29.959Z,65.00
2023-03-30T20:53:57.517Z,64.99
2023-03-30T20:56:27.893Z,65.08
2023-03-30T20:58:56.253Z,65.09
2023-03-30T21:01:27.174Z,65.25
2023-03-30T21:03:57.552Z,65.29
2023-03-30T21:06:27.218Z,65.34
2023-03-30T21:08:57.754Z,65.36
2023-03-30T21:11:29.438Z,65.41
2023-03-30T21:13:57.404Z,65.34
2023-03-30T21:16:37.916Z,65.52
2023-03-30T21:19:08.147Z,65.56
2023-03-30T21:21:37.601Z,65.54
2023-03-30T21:24:08.631Z,65.77
2023-03-30T21:26:36.903Z,65.69
2023-03-30T21:29:05.610Z,65.81
2023-03-30T21:31:33.393Z,65.85
2023-03-30T21:34:01.258Z,65.92
2023-03-30T21:36:28.848Z,66.11
2023-03-30T21:38:58.533Z,66.01
2023-03-30T21:41:27.526Z,66.04
2023-03-30T21:43:55.156Z,66.32
2023-03-30T21:46:25.980Z,66.24
2023-03-30T21:48:54.542Z,66.34
2023-03-30T21:51:27.385Z,66.27
2023-03-30T21:53:56.852Z,66.27
2023-03-30T21:56:27.637Z,66.35
2023-03-30T21:58:55.233Z,66.36
2023-03-30T22:01:26.481Z,66.46
2023-03-30T22:03:54.736Z,66.43
2023-03-30T22:06:23.786Z,66.13
2023-03-30T22:08:51.829Z,66.24
2023-03-30T22:11:22.441Z,66.27
2023-03-30T22:13:51.950Z,66.25
2023-03-30T22:16:26.614Z,66.30
2023-03-30T22:18:55.490Z,66.21
2023-03-30T22:21:34.843Z,66.15
2023-03-30T22:24:04.075Z,66.24
2023-03-30T22:26:32.202Z,66.24
2023-03-30T22:29:00.002Z,66.28
2023-03-30T22:31:28.436Z,66.32
2023-03-30T22:33:56.751Z,66.35
2023-03-30T22:36:29.726Z,66.38
2023-03-30T22:38:58.904Z,66.44
2023-03-30T22:41:26.976Z,66.46
2023-03-30T22:43:57.178Z,66.51
2023-03-30T22:46:26.354Z,66.52
2023-03-30T22:48:55.414Z,66.58
2023-03-30T22:51:28.158Z,66.53
2023-03-30T22:54:00.836Z,66.57
2023-03-30T22:56:29.866Z,66.82
2023-03-30T22:58:59.729Z,66.74
2023-03-30T23:01:29.099Z,66.77
2023-03-30T23:03:59.979Z,66.77
2023-03-30T23:06:27.743Z,66.81
2023-03-30T23:08:55.315Z,66.79
2023-03-30T23:11:23.102Z,66.84
2023-03-30T23:13:52.293Z,66.82
2023-03-30T23:16:19.796Z,66.85
2023-03-30T23:18:48.147Z,67.06
2023-03-30T23:21:16.713Z,67.03
2023-03-30T23:23:44.202Z,67.11
2023-03-30T23:26:11.728Z,67.19
2023-03-30T23:28:42.335Z,67.31
2023-03-30T23:31:16.487Z,67.24
2023-03-30T23:33:45.759Z,67.34
2023-03-30T23:36:17.359Z,67.45
2023-03-30T23:38:47.222Z,67.36
2023-03-30T23:41:17.313Z,67.46
2023-03-30T23:43:45.765Z,67.57
2023-03-30T23:46:15.431Z,67.54
2023-03-30T23:48:44.213Z,67.61
2023-03-30T23:51:12.327Z,67.63
2023-03-30T23:53:41.560Z,67.80
2023-03-30T23:56:13.565Z,67.77
2023-03-30T23:58:41.468Z,67.93
